createdAt,value
2018-03-31T00:00:03.098Z,0
2018-03-31T00:05:03.263Z,2
2018-03-31T00:10:02.926Z,0
2018-03-31T00:15:03.495Z,0
2018-03-31T00:20:03.075Z,0
2018-03-31T00:25:02.683Z,3
2018-03-31T00:30:03.270Z,2
2018-03-31T00:35:02.831Z,0
2018-03-31T00:40:03.324Z,1
2018-03-31T00:45:02.811Z,0
2018-03-31T00:50:03.438Z,2
2018-03-31T00:55:02.975Z,1
2018-03-31T01:00:03.566Z,2
2018-03-31T01:05:03.033Z,0
2018-03-31T01:10:02.597Z,1
2018-03-31T01:15:03.104Z,2
2018-03-31T01:20:03.605Z,2
2018-03-31T01:25:03.145Z,1
2018-03-31T01:30:02.726Z,0
2018-03-31T01:35:03.305Z,1
2018-03-31T01:40:02.930Z,0
2018-03-31T01:45:03.564Z,0
2018-03-31T01:50:03.064Z,2
2018-03-31T01:55:03.603Z,0
2018-03-31T02:00:03.153Z,0
2018-03-31T02:05:02.726Z,0
2018-03-31T02:10:03.255Z,0
2018-03-31T02:15:02.968Z,0
2018-03-31T02:20:02.692Z,0
2018-03-31T02:25:03.293Z,0
2018-03-31T02:30:02.917Z,0
2018-03-31T02:35:03.508Z,0
2018-03-31T02:40:03.048Z,0
2018-03-31T02:45:02.717Z,0
2018-03-31T02:50:03.259Z,0
2018-03-31T02:55:02.872Z,0
2018-03-31T03:00:03.589Z,0
2018-03-31T03:05:03.161Z,0
2018-03-31T03:10:02.860Z,0
2018-03-31T03:15:03.384Z,0
2018-03-31T03:20:03.055Z,0
2018-03-31T03:25:03.602Z,0
2018-03-31T03:30:03.176Z,0
2018-03-31T03:35:02.923Z,0
2018-03-31T03:40:03.560Z,0
2018-03-31T03:45:03.098Z,0
2018-03-31T03:50:02.700Z,0
2018-03-31T03:55:03.304Z,0
2018-03-31T04:00:02.908Z,0
2018-03-31T04:05:03.518Z,0
2018-03-31T04:10:03.148Z,0
2018-03-31T04:15:02.702Z,0
2018-03-31T04:20:03.289Z,0
2018-03-31T04:25:02.862Z,0
2018-03-31T04:30:02.923Z,0
2018-03-31T04:35:03.456Z,0
2018-03-31T04:40:03.099Z,0
2018-03-31T04:45:02.725Z,0
2018-03-31T04:50:03.290Z,0
2018-03-31T04:55:02.887Z,0
2018-03-31T05:00:03.496Z,0
2018-03-31T05:05:02.999Z,0
2018-03-31T05:10:03.635Z,0
2018-03-31T05:15:03.218Z,0
2018-03-31T05:20:02.730Z,0
2018-03-31T05:25:03.278Z,0
2018-03-31T05:30:02.799Z,0
2018-03-31T05:35:03.386Z,0
2018-03-31T05:40:02.836Z,0
2018-03-31T05:45:03.464Z,0
2018-03-31T05:50:02.953Z,0
2018-03-31T05:55:03.546Z,0
2018-03-31T06:00:03.213Z,0
2018-03-31T06:05:02.815Z,0
2018-03-31T06:10:03.451Z,0
2018-03-31T06:15:03.230Z,0
2018-03-31T06:20:02.871Z,0
2018-03-31T06:25:03.485Z,0
2018-03-31T06:30:03.330Z,0
2018-03-31T06:35:02.878Z,0
2018-03-31T06:40:03.551Z,0
2018-03-31T06:45:03.105Z,0
2018-03-31T06:50:02.692Z,0
2018-03-31T06:55:03.306Z,0
2018-03-31T07:00:03.036Z,0
2018-03-31T07:05:02.643Z,0
2018-03-31T07:10:03.194Z,0
2018-03-31T07:15:02.771Z,0
2018-03-31T07:20:03.368Z,0
2018-03-31T07:25:02.945Z,0
2018-03-31T07:30:03.530Z,0
2018-03-31T07:35:03.093Z,0
2018-03-31T07:40:02.647Z,0
2018-03-31T07:45:03.248Z,0
2018-03-31T07:50:02.796Z,0
2018-03-31T07:55:03.381Z,0
2018-03-31T08:00:02.979Z,0
2018-03-31T08:05:02.608Z,0
2018-03-31T08:10:03.220Z,0
2018-03-31T08:15:02.747Z,0
2018-03-31T08:20:03.316Z,0
2018-03-31T08:25:02.870Z,0
2018-03-31T08:30:03.365Z,0
2018-03-31T08:35:02.911Z,0
2018-03-31T08:40:03.486Z,0
2018-03-31T08:45:03.048Z,0
2018-03-31T08:50:02.626Z,0
2018-03-31T08:55:03.113Z,0
2018-03-31T09:00:02.697Z,0
2018-03-31T09:05:03.318Z,0
2018-03-31T09:10:02.918Z,0
2018-03-31T09:15:03.521Z,0
2018-03-31T09:20:03.165Z,0
2018-03-31T09:25:02.663Z,0
2018-03-31T09:30:03.503Z,2
2018-03-31T09:35:03.131Z,0
2018-03-31T09:40:03.008Z,0
2018-03-31T09:45:02.638Z,2
2018-03-31T09:50:03.179Z,0
2018-03-31T09:55:02.681Z,0
2018-03-31T10:00:03.254Z,1
2018-03-31T10:05:02.803Z,0
2018-03-31T10:10:03.475Z,0
2018-03-31T10:15:02.973Z,0
2018-03-31T10:20:02.745Z,0
2018-03-31T10:25:03.337Z,0
2018-03-31T10:30:02.818Z,0
2018-03-31T10:35:03.421Z,2
2018-03-31T10:40:03.109Z,0
2018-03-31T10:45:02.679Z,1
2018-03-31T10:50:03.246Z,3
2018-03-31T10:55:02.817Z,2
2018-03-31T11:00:03.320Z,0
2018-03-31T11:05:02.858Z,2
2018-03-31T11:10:03.471Z,1
2018-03-31T11:15:03.047Z,0
2018-03-31T11:20:02.680Z,0
2018-03-31T11:25:03.235Z,2
2018-03-31T11:30:02.806Z,1
2018-03-31T11:35:03.361Z,0
2018-03-31T11:40:03.004Z,2
2018-03-31T11:45:03.625Z,0
2018-03-31T11:50:03.255Z,0
2018-03-31T11:55:02.815Z,2
2018-03-31T12:00:03.384Z,0
2018-03-31T12:05:02.896Z,0
2018-03-31T12:10:03.510Z,0
2018-03-31T12:15:03.047Z,0
2018-03-31T12:20:02.622Z,0
2018-03-31T12:25:03.231Z,0
2018-03-31T12:30:02.779Z,0
2018-03-31T12:35:03.350Z,0
2018-03-31T12:40:03.029Z,2
2018-03-31T12:45:02.637Z,0
2018-03-31T12:50:03.441Z,2
2018-03-31T12:55:03.264Z,0
2018-03-31T13:00:02.906Z,0
2018-03-31T13:05:03.423Z,0
2018-03-31T13:10:03.126Z,0
2018-03-31T13:15:02.674Z,0
2018-03-31T13:20:03.318Z,0
2018-03-31T13:25:02.915Z,0
2018-03-31T13:30:03.545Z,0
2018-03-31T13:35:03.323Z,0
2018-03-31T13:40:03.017Z,0
2018-03-31T13:45:02.658Z,0
2018-03-31T13:50:03.348Z,0
2018-03-31T13:55:03.051Z,0
2018-03-31T14:00:02.656Z,0
2018-03-31T14:05:03.222Z,0
2018-03-31T14:10:03.074Z,0
2018-03-31T14:15:02.776Z,0
2018-03-31T14:20:03.306Z,0
2018-03-31T14:25:02.958Z,0
2018-03-31T14:30:03.605Z,0
2018-03-31T14:35:03.286Z,0
2018-03-31T14:40:02.881Z,0
2018-03-31T14:45:03.476Z,0
2018-03-31T14:50:03.016Z,0
2018-03-31T14:55:03.592Z,0
2018-03-31T15:00:03.422Z,0
2018-03-31T15:05:02.982Z,0
2018-03-31T15:10:03.612Z,3
2018-03-31T15:15:03.155Z,0
2018-03-31T15:20:02.778Z,2
2018-03-31T15:25:03.382Z,0
2018-03-31T15:30:02.969Z,2
2018-03-31T15:35:03.610Z,0
2018-03-31T15:40:03.563Z,0
2018-03-31T15:45:03.180Z,0
2018-03-31T15:50:02.787Z,2
2018-03-31T15:55:03.338Z,1
2018-03-31T16:00:02.937Z,2
2018-03-31T16:05:02.635Z,0
2018-03-31T16:10:03.320Z,0
2018-03-31T16:15:02.897Z,3
2018-03-31T16:20:03.527Z,0
2018-03-31T16:25:03.221Z,0
2018-03-31T16:30:02.906Z,1
2018-03-31T16:35:03.506Z,0
2018-03-31T16:40:03.040Z,0
2018-03-31T16:45:03.623Z,1
2018-03-31T16:50:03.191Z,0
2018-03-31T16:55:02.785Z,0
2018-03-31T17:00:03.346Z,2
2018-03-31T17:05:02.951Z,2
2018-03-31T17:10:02.611Z,0
2018-03-31T17:15:03.134Z,0
2018-03-31T17:20:02.801Z,0
2018-03-31T17:25:03.349Z,0
2018-03-31T17:30:02.838Z,0
2018-03-31T17:35:03.570Z,0
2018-03-31T17:40:03.164Z,1
2018-03-31T17:45:02.756Z,0
2018-03-31T17:50:03.294Z,0
2018-03-31T17:55:02.782Z,0
2018-03-31T18:00:03.382Z,0
2018-03-31T18:05:02.914Z,0
2018-03-31T18:10:03.501Z,0
2018-03-31T18:15:03.058Z,0
2018-03-31T18:20:03.614Z,0
2018-03-31T18:25:03.108Z,0
2018-03-31T18:30:02.777Z,0
2018-03-31T18:35:03.375Z,0
2018-03-31T18:40:03.043Z,0
2018-03-31T18:45:03.624Z,0
2018-03-31T18:50:03.338Z,0
2018-03-31T18:55:02.913Z,0
2018-03-31T19:00:03.490Z,0
2018-03-31T19:05:03.025Z,0
2018-03-31T19:10:02.629Z,12
2018-03-31T19:15:03.319Z,9
2018-03-31T19:20:02.995Z,8
2018-03-31T19:25:02.672Z,8
2018-03-31T19:30:03.132Z,9
2018-03-31T19:35:02.682Z,4
2018-03-31T19:40:03.267Z,3
2018-03-31T19:45:02.860Z,5
2018-03-31T19:50:03.426Z,4
2018-03-31T19:55:02.929Z,4
2018-03-31T20:00:03.598Z,4
2018-03-31T20:05:03.141Z,3
2018-03-31T20:10:02.768Z,5
2018-03-31T20:15:03.430Z,7
2018-03-31T20:20:03.082Z,4
2018-03-31T20:25:02.635Z,4
2018-03-31T20:30:03.185Z,6
2018-03-31T20:35:02.814Z,8
2018-03-31T20:40:03.500Z,5
2018-03-31T20:45:03.456Z,1
2018-03-31T20:50:03.160Z,0
2018-03-31T20:55:02.723Z,2
2018-03-31T21:00:03.277Z,0
2018-03-31T21:05:02.918Z,0
2018-03-31T21:10:03.607Z,0
2018-03-31T21:15:03.274Z,0
2018-03-31T21:20:02.873Z,0
2018-03-31T21:25:03.480Z,1
2018-03-31T21:30:03.421Z,0
2018-03-31T21:35:03.057Z,3
2018-03-31T21:40:02.713Z,0
2018-03-31T21:45:03.259Z,0
2018-03-31T21:50:02.861Z,0
2018-03-31T21:55:03.501Z,0
2018-03-31T22:00:03.034Z,0
2018-03-31T22:05:02.735Z,0
2018-03-31T22:10:03.328Z,0
2018-03-31T22:15:02.928Z,0
2018-03-31T22:20:03.459Z,0
2018-03-31T22:25:03.083Z,0
2018-03-31T22:30:02.630Z,0
2018-03-31T22:35:03.298Z,0
2018-03-31T22:40:03.014Z,0
2018-03-31T22:45:03.607Z,0
2018-03-31T22:50:03.293Z,0
2018-03-31T22:55:02.890Z,0
2018-03-31T23:00:05.710Z,0
2018-03-31T23:05:02.642Z,0
2018-03-31T23:10:03.240Z,0
2018-03-31T23:15:02.808Z,0
2018-03-31T23:20:03.394Z,0
2018-03-31T23:25:02.945Z,0
2018-03-31T23:30:03.506Z,0
2018-03-31T23:35:03.020Z,0
2018-03-31T23:40:02.655Z,0
2018-03-31T23:45:03.264Z,0
2018-03-31T23:50:02.878Z,0
2018-03-31T23:55:03.473Z,0
